KGED Airport (Delaware Coastal) Information

FAA: GED - ICAO: KGED

KGED Airport Location

State Delaware
County Sussex
City Georgetown
KGED Airport is 2 miles southeast of Georgetown, DE.
Latitude 38-41-15.5000N
Longitude 075-21-33.5000W
Elevation 53ft

KGED Airport METARs

METAR KGED 251554Z AUTO 22012KT 10SM CLR 24/17 A2994 RMK AO2 SLP139 T02440172
Altimeter 29.94"
Temperature 24.4°C (75.9°F)
Wind 220° at 12KT
Clouds Skies are clear.
Visibility 10.0mi
Time observed: 2021-10-25T15:54:00Z

KGED Airport Details

Status Operational
Activation N/A
Ownership Public
Usage Public
Chart WASHINGTON
ATC on-site No
Beacon schedule sunset-sunrise
Beacon color clear green

KGED Airport Contacts

Owner SUSSEX COUNTY COUNCIL
Owner address PO BOX 589, GEORGETOWN, DE 19947
Owner phone 302-855-7770
Manager DAVID & CATHERINE DOYLE
Manager address 1029 PEACH BASKET RD, FELTON, DE 19943
Manager phone 302-284-2101

KGED Airport (Delaware Coastal) Radio Frequencies

KGED (Airport) Radio Frequencies

UNICOM 123
Common traffic advisory frequency (CTAF) 123